sensor_id;sensor_type;location;lat;lon;timestamp;temperature;humidity
13086;DHT22;6609;49.882;8.664;2023-04-25T00:03:22;10.30;90.00
13086;DHT22;6609;49.882;8.664;2023-04-25T00:05:50;10.30;90.10
13086;DHT22;6609;49.882;8.664;2023-04-25T00:08:17;10.30;90.10
13086;DHT22;6609;49.882;8.664;2023-04-25T00:10:45;10.30;90.20
13086;DHT22;6609;49.882;8.664;2023-04-25T00:13:12;10.30;90.40
13086;DHT22;6609;49.882;8.664;2023-04-25T00:15:38;10.20;90.40
13086;DHT22;6609;49.882;8.664;2023-04-25T00:18:07;10.10;90.50
13086;DHT22;6609;49.882;8.664;2023-04-25T00:20:35;10.10;90.70
13086;DHT22;6609;49.882;8.664;2023-04-25T00:23:02;10.10;90.90
13086;DHT22;6609;49.882;8.664;2023-04-25T00:25:28;10.10;90.70
13086;DHT22;6609;49.882;8.664;2023-04-25T00:27:56;10.10;90.60
13086;DHT22;6609;49.882;8.664;2023-04-25T00:30:23;10.20;90.90
13086;DHT22;6609;49.882;8.664;2023-04-25T00:32:50;10.20;90.80
13086;DHT22;6609;49.882;8.664;2023-04-25T00:35:17;10.10;90.90
13086;DHT22;6609;49.882;8.664;2023-04-25T00:37:43;10.10;91.00
13086;DHT22;6609;49.882;8.664;2023-04-25T00:40:10;10.10;91.00
13086;DHT22;6609;49.882;8.664;2023-04-25T00:42:37;10.10;91.00
13086;DHT22;6609;49.882;8.664;2023-04-25T00:45:06;10.10;91.00
13086;DHT22;6609;49.882;8.664;2023-04-25T00:47:36;10.20;91.00
13086;DHT22;6609;49.882;8.664;2023-04-25T00:50:03;10.20;91.20
13086;DHT22;6609;49.882;8.664;2023-04-25T00:52:29;10.10;90.90
13086;DHT22;6609;49.882;8.664;2023-04-25T00:57:23;10.00;90.90
13086;DHT22;6609;49.882;8.664;2023-04-25T00:59:52;10.10;91.10
13086;DHT22;6609;49.882;8.664;2023-04-25T01:58:22;10.20;90.90
13086;DHT22;6609;49.882;8.664;2023-04-25T02:00:49;10.10;90.80
13086;DHT22;6609;49.882;8.664;2023-04-25T02:03:15;10.20;90.90
13086;DHT22;6609;49.882;8.664;2023-04-25T02:05:42;10.20;91.00
13086;DHT22;6609;49.882;8.664;2023-04-25T02:08:09;10.20;91.00
13086;DHT22;6609;49.882;8.664;2023-04-25T02:10:36;10.20;91.00
13086;DHT22;6609;49.882;8.664;2023-04-25T02:13:03;10.20;91.00
13086;DHT22;6609;49.882;8.664;2023-04-25T02:15:32;10.20;91.00
13086;DHT22;6609;49.882;8.664;2023-04-25T02:17:59;10.20;91.20
13086;DHT22;6609;49.882;8.664;2023-04-25T02:20:27;10.10;91.10
13086;DHT22;6609;49.882;8.664;2023-04-25T02:22:54;10.10;91.20
13086;DHT22;6609;49.882;8.664;2023-04-25T02:25:21;10.10;91.20
13086;DHT22;6609;49.882;8.664;2023-04-25T02:27:48;10.10;91.20
13086;DHT22;6609;49.882;8.664;2023-04-25T02:30:15;10.00;91.60
13086;DHT22;6609;49.882;8.664;2023-04-25T02:32:43;10.00;91.90
13086;DHT22;6609;49.882;8.664;2023-04-25T02:35:10;9.90;92.30
13086;DHT22;6609;49.882;8.664;2023-04-25T02:37:38;10.00;91.90
13086;DHT22;6609;49.882;8.664;2023-04-25T02:40:06;10.00;91.90
13086;DHT22;6609;49.882;8.664;2023-04-25T02:42:33;10.00;91.90
13086;DHT22;6609;49.882;8.664;2023-04-25T02:45:00;10.00;91.90
13086;DHT22;6609;49.882;8.664;2023-04-25T02:47:27;9.90;92.30
13086;DHT22;6609;49.882;8.664;2023-04-25T02:49:55;10.00;91.90
13086;DHT22;6609;49.882;8.664;2023-04-25T02:52:22;9.90;92.40
13086;DHT22;6609;49.882;8.664;2023-04-25T02:54:48;10.00;92.00
13086;DHT22;6609;49.882;8.664;2023-04-25T02:57:15;10.00;92.00
13086;DHT22;6609;49.882;8.664;2023-04-25T02:59:42;10.00;92.20
13086;DHT22;6609;49.882;8.664;2023-04-25T03:04:35;10.00;92.00
13086;DHT22;6609;49.882;8.664;2023-04-25T03:07:04;9.90;92.70
13086;DHT22;6609;49.882;8.664;2023-04-25T03:09:30;9.90;92.80
13086;DHT22;6609;49.882;8.664;2023-04-25T03:11:57;9.90;92.80
13086;DHT22;6609;49.882;8.664;2023-04-25T03:14:24;9.90;92.70
13086;DHT22;6609;49.882;8.664;2023-04-25T03:16:50;9.80;92.70
13086;DHT22;6609;49.882;8.664;2023-04-25T03:19:17;9.90;92.90
13086;DHT22;6609;49.882;8.664;2023-04-25T03:21:44;9.90;92.80
13086;DHT22;6609;49.882;8.664;2023-04-25T03:24:12;9.80;92.90
13086;DHT22;6609;49.882;8.664;2023-04-25T03:26:39;9.90;93.00
13086;DHT22;6609;49.882;8.664;2023-04-25T03:29:05;9.90;92.90
13086;DHT22;6609;49.882;8.664;2023-04-25T03:31:32;9.90;92.90
13086;DHT22;6609;49.882;8.664;2023-04-25T03:33:59;10.10;92.80
13086;DHT22;6609;49.882;8.664;2023-04-25T03:36:25;9.70;92.80
13086;DHT22;6609;49.882;8.664;2023-04-25T03:41:21;9.70;93.20
13086;DHT22;6609;49.882;8.664;2023-04-25T03:43:47;9.70;93.20
13086;DHT22;6609;49.882;8.664;2023-04-25T03:48:42;9.70;93.30
13086;DHT22;6609;49.882;8.664;2023-04-25T03:51:08;9.80;93.60
13086;DHT22;6609;49.882;8.664;2023-04-25T03:53:35;9.80;93.20
13086;DHT22;6609;49.882;8.664;2023-04-25T03:56:01;9.90;93.20
13086;DHT22;6609;49.882;8.664;2023-04-25T03:58:29;9.80;93.20
13086;DHT22;6609;49.882;8.664;2023-04-25T04:00:56;9.70;93.20
13086;DHT22;6609;49.882;8.664;2023-04-25T04:03:23;9.80;93.50
13086;DHT22;6609;49.882;8.664;2023-04-25T04:05:49;9.70;93.40
13086;DHT22;6609;49.882;8.664;2023-04-25T04:08:16;9.70;93.40
13086;DHT22;6609;49.882;8.664;2023-04-25T04:13:10;9.70;93.30
13086;DHT22;6609;49.882;8.664;2023-04-25T04:15:38;9.80;93.40
13086;DHT22;6609;49.882;8.664;2023-04-25T04:18:04;9.80;93.20
13086;DHT22;6609;49.882;8.664;2023-04-25T04:20:31;9.90;93.10
13086;DHT22;6609;49.882;8.664;2023-04-25T04:22:58;9.80;93.30
13086;DHT22;6609;49.882;8.664;2023-04-25T04:25:25;9.80;92.90
13086;DHT22;6609;49.882;8.664;2023-04-25T04:27:51;9.80;92.70
13086;DHT22;6609;49.882;8.664;2023-04-25T04:30:20;9.70;92.80
13086;DHT22;6609;49.882;8.664;2023-04-25T04:32:50;9.70;92.80
13086;DHT22;6609;49.882;8.664;2023-04-25T04:35:17;9.80;92.80
13086;DHT22;6609;49.882;8.664;2023-04-25T04:40:11;9.90;92.80
13086;DHT22;6609;49.882;8.664;2023-04-25T04:42:40;9.90;92.80
13086;DHT22;6609;49.882;8.664;2023-04-25T04:45:08;9.90;92.80
13086;DHT22;6609;49.882;8.664;2023-04-25T04:47:35;9.80;92.70
13086;DHT22;6609;49.882;8.664;2023-04-25T04:50:04;9.80;92.70
13086;DHT22;6609;49.882;8.664;2023-04-25T04:52:34;9.90;92.70
13086;DHT22;6609;49.882;8.664;2023-04-25T04:55:00;9.90;92.60
13086;DHT22;6609;49.882;8.664;2023-04-25T04:57:27;9.90;92.50
13086;DHT22;6609;49.882;8.664;2023-04-25T04:59:54;9.90;92.40
13086;DHT22;6609;49.882;8.664;2023-04-25T05:02:21;9.90;92.30
13086;DHT22;6609;49.882;8.664;2023-04-25T05:04:47;9.90;91.60
13086;DHT22;6609;49.882;8.664;2023-04-25T05:07:15;9.90;91.10
13086;DHT22;6609;49.882;8.664;2023-04-25T05:09:42;9.80;90.40
13086;DHT22;6609;49.882;8.664;2023-04-25T05:12:09;9.70;90.40
13086;DHT22;6609;49.882;8.664;2023-04-25T05:17:02;9.80;90.00
13086;DHT22;6609;49.882;8.664;2023-04-25T05:19:32;9.80;90.20
13086;DHT22;6609;49.882;8.664;2023-04-25T05:21:58;9.80;88.80
13086;DHT22;6609;49.882;8.664;2023-04-25T05:24:26;9.80;88.20
13086;DHT22;6609;49.882;8.664;2023-04-25T05:26:53;9.70;86.40
13086;DHT22;6609;49.882;8.664;2023-04-25T05:29:20;9.70;87.30
13086;DHT22;6609;49.882;8.664;2023-04-25T05:31:47;9.70;87.10
13086;DHT22;6609;49.882;8.664;2023-04-25T05:36:42;9.80;86.70
13086;DHT22;6609;49.882;8.664;2023-04-25T05:39:08;9.80;86.50
13086;DHT22;6609;49.882;8.664;2023-04-25T05:41:37;9.80;86.30
13086;DHT22;6609;49.882;8.664;2023-04-25T05:44:03;9.80;86.00
13086;DHT22;6609;49.882;8.664;2023-04-25T05:46:30;9.80;86.00
13086;DHT22;6609;49.882;8.664;2023-04-25T05:48:57;9.80;86.00
13086;DHT22;6609;49.882;8.664;2023-04-25T05:51:24;9.80;86.00
13086;DHT22;6609;49.882;8.664;2023-04-25T05:56:18;9.80;84.80
13086;DHT22;6609;49.882;8.664;2023-04-25T05:58:46;9.80;85.40
13086;DHT22;6609;49.882;8.664;2023-04-25T06:01:13;9.90;84.70
13086;DHT22;6609;49.882;8.664;2023-04-25T06:03:40;10.00;83.30
13086;DHT22;6609;49.882;8.664;2023-04-25T06:06:08;10.10;82.70
13086;DHT22;6609;49.882;8.664;2023-04-25T06:11:03;10.10;81.60
13086;DHT22;6609;49.882;8.664;2023-04-25T06:15:58;10.10;81.30
13086;DHT22;6609;49.882;8.664;2023-04-25T06:18:24;10.10;81.10
13086;DHT22;6609;49.882;8.664;2023-04-25T06:20:51;10.10;81.10
13086;DHT22;6609;49.882;8.664;2023-04-25T06:23:18;10.10;81.60
13086;DHT22;6609;49.882;8.664;2023-04-25T06:25:44;10.10;80.40
13086;DHT22;6609;49.882;8.664;2023-04-25T06:28:11;10.20;80.00
13086;DHT22;6609;49.882;8.664;2023-04-25T06:30:38;10.20;79.60
13086;DHT22;6609;49.882;8.664;2023-04-25T06:33:06;10.20;80.20
13086;DHT22;6609;49.882;8.664;2023-04-25T06:35:35;10.40;79.30
13086;DHT22;6609;49.882;8.664;2023-04-25T06:38:02;10.50;79.20
13086;DHT22;6609;49.882;8.664;2023-04-25T06:40:29;10.40;78.80
13086;DHT22;6609;49.882;8.664;2023-04-25T06:50:18;10.60;76.60
13086;DHT22;6609;49.882;8.664;2023-04-25T06:52:44;10.60;76.90
13086;DHT22;6609;49.882;8.664;2023-04-25T06:57:38;10.70;74.90
13086;DHT22;6609;49.882;8.664;2023-04-25T07:02:34;10.90;73.80
13086;DHT22;6609;49.882;8.664;2023-04-25T07:05:01;11.00;73.40
13086;DHT22;6609;49.882;8.664;2023-04-25T07:07:31;11.10;73.00
13086;DHT22;6609;49.882;8.664;2023-04-25T07:12:24;11.60;71.20
13086;DHT22;6609;49.882;8.664;2023-04-25T07:22:12;12.60;65.80
13086;DHT22;6609;49.882;8.664;2023-04-25T07:24:40;12.40;64.70
13086;DHT22;6609;49.882;8.664;2023-04-25T07:29:34;12.30;64.70
13086;DHT22;6609;49.882;8.664;2023-04-25T07:36:57;12.20;64.20
13086;DHT22;6609;49.882;8.664;2023-04-25T07:41:53;12.20;63.50
13086;DHT22;6609;49.882;8.664;2023-04-25T07:46:47;12.20;62.40
13086;DHT22;6609;49.882;8.664;2023-04-25T07:49:13;12.20;61.30
13086;DHT22;6609;49.882;8.664;2023-04-25T07:51:40;12.10;61.30
13086;DHT22;6609;49.882;8.664;2023-04-25T07:56:35;12.40;61.00
13086;DHT22;6609;49.882;8.664;2023-04-25T07:59:03;12.70;61.10
13086;DHT22;6609;49.882;8.664;2023-04-25T08:11:19;13.20;59.60
13086;DHT22;6609;49.882;8.664;2023-04-25T08:16:15;13.30;58.30
13086;DHT22;6609;49.882;8.664;2023-04-25T08:18:42;13.50;58.40
13086;DHT22;6609;49.882;8.664;2023-04-25T08:23:36;13.70;56.40
13086;DHT22;6609;49.882;8.664;2023-04-25T08:28:31;14.30;55.10
13086;DHT22;6609;49.882;8.664;2023-04-25T08:30:58;14.40;53.80
13086;DHT22;6609;49.882;8.664;2023-04-25T08:33:26;14.50;53.00
13086;DHT22;6609;49.882;8.664;2023-04-25T08:38:20;14.30;52.50
13086;DHT22;6609;49.882;8.664;2023-04-25T08:40:49;14.20;52.30
13086;DHT22;6609;49.882;8.664;2023-04-25T08:43:18;14.10;53.00
13086;DHT22;6609;49.882;8.664;2023-04-25T08:48:13;14.70;52.20
13086;DHT22;6609;49.882;8.664;2023-04-25T08:50:45;15.10;50.90
13086;DHT22;6609;49.882;8.664;2023-04-25T08:53:14;15.40;49.70
13086;DHT22;6609;49.882;8.664;2023-04-25T08:55:45;15.40;50.30
13086;DHT22;6609;49.882;8.664;2023-04-25T08:58:12;15.90;47.10
13086;DHT22;6609;49.882;8.664;2023-04-25T09:00:39;16.20;47.30
13086;DHT22;6609;49.882;8.664;2023-04-25T09:05:34;16.30;46.80
13086;DHT22;6609;49.882;8.664;2023-04-25T09:08:02;15.80;46.60
13086;DHT22;6609;49.882;8.664;2023-04-25T09:10:29;15.50;46.70
13086;DHT22;6609;49.882;8.664;2023-04-25T09:13:02;15.60;46.80
13086;DHT22;6609;49.882;8.664;2023-04-25T09:15:31;15.10;45.40
13086;DHT22;6609;49.882;8.664;2023-04-25T09:17:58;15.20;45.70
13086;DHT22;6609;49.882;8.664;2023-04-25T09:20:25;15.60;46.20
13086;DHT22;6609;49.882;8.664;2023-04-25T09:23:02;16.00;45.00
13086;DHT22;6609;49.882;8.664;2023-04-25T09:25:34;16.30;44.60
13086;DHT22;6609;49.882;8.664;2023-04-25T09:28:05;16.70;43.70
13086;DHT22;6609;49.882;8.664;2023-04-25T09:30:33;16.60;42.30
13086;DHT22;6609;49.882;8.664;2023-04-25T09:33:04;16.60;42.70
13086;DHT22;6609;49.882;8.664;2023-04-25T09:35:36;17.00;41.80
13086;DHT22;6609;49.882;8.664;2023-04-25T09:38:09;16.80;41.00
13086;DHT22;6609;49.882;8.664;2023-04-25T09:40:39;16.30;41.40
13086;DHT22;6609;49.882;8.664;2023-04-25T09:43:09;15.90;41.40
13086;DHT22;6609;49.882;8.664;2023-04-25T09:45:41;15.50;41.80
13086;DHT22;6609;49.882;8.664;2023-04-25T09:55:35;14.60;43.90
13086;DHT22;6609;49.882;8.664;2023-04-25T09:58:05;14.40;44.40
13086;DHT22;6609;49.882;8.664;2023-04-25T10:00:33;14.30;44.80
13086;DHT22;6609;49.882;8.664;2023-04-25T10:03:01;14.20;45.40
13086;DHT22;6609;49.882;8.664;2023-04-25T10:05:30;14.20;45.10
13086;DHT22;6609;49.882;8.664;2023-04-25T10:07:59;14.00;44.60
13086;DHT22;6609;49.882;8.664;2023-04-25T10:10:29;13.80;45.10
13086;DHT22;6609;49.882;8.664;2023-04-25T10:13:04;13.70;45.00
13086;DHT22;6609;49.882;8.664;2023-04-25T10:15:34;13.70;45.50
13086;DHT22;6609;49.882;8.664;2023-04-25T10:18:01;13.50;45.80
13086;DHT22;6609;49.882;8.664;2023-04-25T10:20:28;13.30;44.60
13086;DHT22;6609;49.882;8.664;2023-04-25T10:23:03;13.10;44.80
13086;DHT22;6609;49.882;8.664;2023-04-25T10:27:59;12.80;46.40
13086;DHT22;6609;49.882;8.664;2023-04-25T10:30:27;12.80;47.10
13086;DHT22;6609;49.882;8.664;2023-04-25T10:32:55;12.90;47.20
13086;DHT22;6609;49.882;8.664;2023-04-25T10:35:25;12.90;47.00
13086;DHT22;6609;49.882;8.664;2023-04-25T10:38:04;13.00;47.10
13086;DHT22;6609;49.882;8.664;2023-04-25T10:40:31;13.10;47.10
13086;DHT22;6609;49.882;8.664;2023-04-25T10:43:33;13.10;47.10
13086;DHT22;6609;49.882;8.664;2023-04-25T10:46:01;13.10;47.30
13086;DHT22;6609;49.882;8.664;2023-04-25T10:48:30;13.40;48.00
13086;DHT22;6609;49.882;8.664;2023-04-25T10:51:09;13.50;47.90
13086;DHT22;6609;49.882;8.664;2023-04-25T10:56:09;13.60;48.30
13086;DHT22;6609;49.882;8.664;2023-04-25T10:58:42;13.50;47.60
13086;DHT22;6609;49.882;8.664;2023-04-25T11:01:10;13.40;47.70
13086;DHT22;6609;49.882;8.664;2023-04-25T11:03:40;13.40;47.90
13086;DHT22;6609;49.882;8.664;2023-04-25T11:06:12;13.40;47.60
13086;DHT22;6609;49.882;8.664;2023-04-25T11:08:48;13.40;48.00
13086;DHT22;6609;49.882;8.664;2023-04-25T11:11:15;13.60;48.30
13086;DHT22;6609;49.882;8.664;2023-04-25T11:13:43;13.90;48.50
13086;DHT22;6609;49.882;8.664;2023-04-25T11:16:11;14.10;48.20
13086;DHT22;6609;49.882;8.664;2023-04-25T11:18:37;14.40;47.80
13086;DHT22;6609;49.882;8.664;2023-04-25T11:23:31;14.50;46.80
13086;DHT22;6609;49.882;8.664;2023-04-25T11:28:27;14.60;46.20
13086;DHT22;6609;49.882;8.664;2023-04-25T11:30:53;14.70;46.30
13086;DHT22;6609;49.882;8.664;2023-04-25T11:33:25;14.90;46.10
13086;DHT22;6609;49.882;8.664;2023-04-25T11:35:53;15.00;44.70
13086;DHT22;6609;49.882;8.664;2023-04-25T11:40:50;14.70;44.20
13086;DHT22;6609;49.882;8.664;2023-04-25T11:43:18;14.60;43.90
13086;DHT22;6609;49.882;8.664;2023-04-25T11:45:46;14.30;44.60
13086;DHT22;6609;49.882;8.664;2023-04-25T11:50:42;14.00;45.90
13086;DHT22;6609;49.882;8.664;2023-04-25T11:55:36;13.80;46.80
13086;DHT22;6609;49.882;8.664;2023-04-25T12:00:31;13.80;46.40
13086;DHT22;6609;49.882;8.664;2023-04-25T12:05:27;13.80;45.10
13086;DHT22;6609;49.882;8.664;2023-04-25T12:07:55;13.70;45.00
13086;DHT22;6609;49.882;8.664;2023-04-25T12:10:24;13.80;45.80
13086;DHT22;6609;49.882;8.664;2023-04-25T12:12:51;13.70;45.90
13086;DHT22;6609;49.882;8.664;2023-04-25T12:15:24;13.70;45.50
13086;DHT22;6609;49.882;8.664;2023-04-25T12:17:52;13.60;44.90
13086;DHT22;6609;49.882;8.664;2023-04-25T12:20:21;13.50;44.80
13086;DHT22;6609;49.882;8.664;2023-04-25T12:25:35;13.20;45.60
13086;DHT22;6609;49.882;8.664;2023-04-25T12:28:13;13.30;45.70
13086;DHT22;6609;49.882;8.664;2023-04-25T12:30:53;13.60;45.40
13086;DHT22;6609;49.882;8.664;2023-04-25T12:38:21;13.90;45.10
13086;DHT22;6609;49.882;8.664;2023-04-25T12:40:49;13.90;45.20
13086;DHT22;6609;49.882;8.664;2023-04-25T12:48:10;13.90;45.10
13086;DHT22;6609;49.882;8.664;2023-04-25T12:50:37;14.00;45.20
13086;DHT22;6609;49.882;8.664;2023-04-25T12:55:31;14.30;44.90
13086;DHT22;6609;49.882;8.664;2023-04-25T12:57:59;14.50;44.70
13086;DHT22;6609;49.882;8.664;2023-04-25T13:02:52;14.80;43.60
13086;DHT22;6609;49.882;8.664;2023-04-25T13:07:46;14.80;42.60
13086;DHT22;6609;49.882;8.664;2023-04-25T13:10:13;14.70;42.00
13086;DHT22;6609;49.882;8.664;2023-04-25T13:12:40;14.70;41.80
13086;DHT22;6609;49.882;8.664;2023-04-25T13:15:09;14.70;42.10
13086;DHT22;6609;49.882;8.664;2023-04-25T13:20:05;14.60;42.40
13086;DHT22;6609;49.882;8.664;2023-04-25T13:22:34;14.50;41.70
13086;DHT22;6609;49.882;8.664;2023-04-25T13:27:29;14.40;41.20
13086;DHT22;6609;49.882;8.664;2023-04-25T13:29:57;14.20;41.10
13086;DHT22;6609;49.882;8.664;2023-04-25T13:32:26;14.20;41.10
13086;DHT22;6609;49.882;8.664;2023-04-25T13:34:53;14.00;40.80
13086;DHT22;6609;49.882;8.664;2023-04-25T13:42:16;13.90;41.60
13086;DHT22;6609;49.882;8.664;2023-04-25T13:44:43;13.90;41.40
13086;DHT22;6609;49.882;8.664;2023-04-25T13:49:38;13.90;42.20
13086;DHT22;6609;49.882;8.664;2023-04-25T13:59:27;13.80;39.70
13086;DHT22;6609;49.882;8.664;2023-04-25T14:06:49;13.70;40.20
13086;DHT22;6609;49.882;8.664;2023-04-25T14:11:43;13.80;40.20
13086;DHT22;6609;49.882;8.664;2023-04-25T14:16:37;14.00;40.60
13086;DHT22;6609;49.882;8.664;2023-04-25T14:24:01;14.30;39.10
13086;DHT22;6609;49.882;8.664;2023-04-25T14:31:22;14.50;39.30
13086;DHT22;6609;49.882;8.664;2023-04-25T14:36:16;14.40;39.70
13086;DHT22;6609;49.882;8.664;2023-04-25T14:41:11;14.30;39.10
13086;DHT22;6609;49.882;8.664;2023-04-25T14:43:38;14.40;39.10
13086;DHT22;6609;49.882;8.664;2023-04-25T14:51:00;14.20;37.30
13086;DHT22;6609;49.882;8.664;2023-04-25T14:53:27;14.20;37.40
13086;DHT22;6609;49.882;8.664;2023-04-25T14:55:54;14.10;37.40
13086;DHT22;6609;49.882;8.664;2023-04-25T14:58:22;14.00;37.40
13086;DHT22;6609;49.882;8.664;2023-04-25T15:00:49;13.90;37.40
13086;DHT22;6609;49.882;8.664;2023-04-25T15:05:43;13.90;36.70
13086;DHT22;6609;49.882;8.664;2023-04-25T15:10:37;14.00;36.80
13086;DHT22;6609;49.882;8.664;2023-04-25T15:15:32;13.90;36.80
13086;DHT22;6609;49.882;8.664;2023-04-25T15:17:59;14.00;37.20
13086;DHT22;6609;49.882;8.664;2023-04-25T15:20:26;14.20;37.20
13086;DHT22;6609;49.882;8.664;2023-04-25T15:27:47;14.30;35.70
13086;DHT22;6609;49.882;8.664;2023-04-25T15:30:17;14.00;35.30
13086;DHT22;6609;49.882;8.664;2023-04-25T15:32:46;13.90;36.00
13086;DHT22;6609;49.882;8.664;2023-04-25T15:35:14;13.80;36.50
13086;DHT22;6609;49.882;8.664;2023-04-25T15:40:10;13.60;37.00
13086;DHT22;6609;49.882;8.664;2023-04-25T15:42:38;13.50;36.90
13086;DHT22;6609;49.882;8.664;2023-04-25T15:45:06;13.50;36.70
13086;DHT22;6609;49.882;8.664;2023-04-25T15:47:34;13.40;36.80
13086;DHT22;6609;49.882;8.664;2023-04-25T15:50:06;13.30;37.10
13086;DHT22;6609;49.882;8.664;2023-04-25T15:52:34;13.20;37.20
13086;DHT22;6609;49.882;8.664;2023-04-25T15:57:29;13.20;37.50
13086;DHT22;6609;49.882;8.664;2023-04-25T16:02:23;13.10;38.20
13086;DHT22;6609;49.882;8.664;2023-04-25T16:07:18;13.10;38.60
13086;DHT22;6609;49.882;8.664;2023-04-25T16:09:44;13.00;38.40
13086;DHT22;6609;49.882;8.664;2023-04-25T16:12:12;13.10;39.00
13086;DHT22;6609;49.882;8.664;2023-04-25T16:14:39;13.10;39.10
13086;DHT22;6609;49.882;8.664;2023-04-25T16:22:00;13.30;39.20
13086;DHT22;6609;49.882;8.664;2023-04-25T16:24:28;13.20;38.60
13086;DHT22;6609;49.882;8.664;2023-04-25T16:29:22;13.30;38.20
13086;DHT22;6609;49.882;8.664;2023-04-25T16:39:09;13.20;38.10
13086;DHT22;6609;49.882;8.664;2023-04-25T16:41:37;13.20;37.80
13086;DHT22;6609;49.882;8.664;2023-04-25T16:46:32;13.10;37.80
13086;DHT22;6609;49.882;8.664;2023-04-25T16:48:59;13.10;37.50
13086;DHT22;6609;49.882;8.664;2023-04-25T16:56:21;13.00;37.00
13086;DHT22;6609;49.882;8.664;2023-04-25T16:58:50;12.90;35.80
13086;DHT22;6609;49.882;8.664;2023-04-25T17:03:45;12.90;34.60
13086;DHT22;6609;49.882;8.664;2023-04-25T17:16:03;12.70;33.90
13086;DHT22;6609;49.882;8.664;2023-04-25T17:18:31;12.70;33.90
13086;DHT22;6609;49.882;8.664;2023-04-25T17:23:25;12.70;34.10
13086;DHT22;6609;49.882;8.664;2023-04-25T17:30:45;12.50;34.30
13086;DHT22;6609;49.882;8.664;2023-04-25T17:33:14;12.50;34.40
13086;DHT22;6609;49.882;8.664;2023-04-25T17:43:02;12.40;35.00
13086;DHT22;6609;49.882;8.664;2023-04-25T17:47:59;12.40;35.20
13086;DHT22;6609;49.882;8.664;2023-04-25T17:52:54;12.40;35.60
13086;DHT22;6609;49.882;8.664;2023-04-25T17:55:21;12.30;35.70
13086;DHT22;6609;49.882;8.664;2023-04-25T18:00:16;12.40;35.70
13086;DHT22;6609;49.882;8.664;2023-04-25T18:02:43;12.40;35.60
13086;DHT22;6609;49.882;8.664;2023-04-25T18:07:41;12.30;35.50
13086;DHT22;6609;49.882;8.664;2023-04-25T18:10:09;12.40;35.90
13086;DHT22;6609;49.882;8.664;2023-04-25T18:12:36;12.30;36.00
13086;DHT22;6609;49.882;8.664;2023-04-25T18:15:04;12.00;35.90
13086;DHT22;6609;49.882;8.664;2023-04-25T18:17:31;12.30;36.60
13086;DHT22;6609;49.882;8.664;2023-04-25T18:19:58;12.30;36.60
13086;DHT22;6609;49.882;8.664;2023-04-25T18:22:26;12.20;37.00
13086;DHT22;6609;49.882;8.664;2023-04-25T18:29:48;12.10;37.70
13086;DHT22;6609;49.882;8.664;2023-04-25T18:37:11;12.00;38.40
13086;DHT22;6609;49.882;8.664;2023-04-25T18:39:38;12.00;39.10
13086;DHT22;6609;49.882;8.664;2023-04-25T18:42:07;12.00;38.80
13086;DHT22;6609;49.882;8.664;2023-04-25T18:44:34;11.90;38.90
13086;DHT22;6609;49.882;8.664;2023-04-25T18:49:32;11.80;39.10
13086;DHT22;6609;49.882;8.664;2023-04-25T18:51:58;11.90;39.80
13086;DHT22;6609;49.882;8.664;2023-04-25T18:56:53;11.80;39.70
13086;DHT22;6609;49.882;8.664;2023-04-25T18:59:23;11.70;39.60
13086;DHT22;6609;49.882;8.664;2023-04-25T19:04:18;11.60;40.50
13086;DHT22;6609;49.882;8.664;2023-04-25T19:06:44;11.60;40.40
13086;DHT22;6609;49.882;8.664;2023-04-25T19:11:40;11.60;40.80
13086;DHT22;6609;49.882;8.664;2023-04-25T19:14:07;11.60;41.00
13086;DHT22;6609;49.882;8.664;2023-04-25T19:16:35;11.60;41.10
13086;DHT22;6609;49.882;8.664;2023-04-25T19:21:31;11.50;41.90
13086;DHT22;6609;49.882;8.664;2023-04-25T19:26:26;11.50;41.90
13086;DHT22;6609;49.882;8.664;2023-04-25T19:29:02;11.40;42.80
13086;DHT22;6609;49.882;8.664;2023-04-25T19:31:30;11.40;42.80
13086;DHT22;6609;49.882;8.664;2023-04-25T19:33:58;11.30;43.20
13086;DHT22;6609;49.882;8.664;2023-04-25T19:36:25;11.20;43.40
13086;DHT22;6609;49.882;8.664;2023-04-25T19:41:20;11.20;44.50
13086;DHT22;6609;49.882;8.664;2023-04-25T19:46:14;11.00;45.30
13086;DHT22;6609;49.882;8.664;2023-04-25T19:48:40;10.80;45.60
13086;DHT22;6609;49.882;8.664;2023-04-25T19:51:09;10.80;46.10
13086;DHT22;6609;49.882;8.664;2023-04-25T19:53:36;10.70;46.10
13086;DHT22;6609;49.882;8.664;2023-04-25T19:56:03;10.60;47.00
13086;DHT22;6609;49.882;8.664;2023-04-25T19:58:30;10.40;48.70
13086;DHT22;6609;49.882;8.664;2023-04-25T20:03:23;10.40;49.60
13086;DHT22;6609;49.882;8.664;2023-04-25T20:05:51;10.30;50.00
13086;DHT22;6609;49.882;8.664;2023-04-25T20:08:19;10.30;50.30
13086;DHT22;6609;49.882;8.664;2023-04-25T20:10:46;10.20;50.60
13086;DHT22;6609;49.882;8.664;2023-04-25T20:13:13;10.10;50.90
13086;DHT22;6609;49.882;8.664;2023-04-25T20:15:40;10.00;51.30
13086;DHT22;6609;49.882;8.664;2023-04-25T20:18:07;10.00;52.00
13086;DHT22;6609;49.882;8.664;2023-04-25T20:20:35;10.00;52.80
13086;DHT22;6609;49.882;8.664;2023-04-25T20:23:01;9.80;54.10
13086;DHT22;6609;49.882;8.664;2023-04-25T20:25:29;9.60;54.90
13086;DHT22;6609;49.882;8.664;2023-04-25T20:27:56;9.60;55.70
13086;DHT22;6609;49.882;8.664;2023-04-25T20:30:23;9.40;55.90
13086;DHT22;6609;49.882;8.664;2023-04-25T20:32:49;9.50;56.20
13086;DHT22;6609;49.882;8.664;2023-04-25T20:35:16;9.50;56.30
13086;DHT22;6609;49.882;8.664;2023-04-25T20:37:43;9.50;56.90
13086;DHT22;6609;49.882;8.664;2023-04-25T20:40:11;9.50;56.80
13086;DHT22;6609;49.882;8.664;2023-04-25T20:42:39;9.60;56.40
13086;DHT22;6609;49.882;8.664;2023-04-25T20:45:07;9.50;55.80
13086;DHT22;6609;49.882;8.664;2023-04-25T20:47:37;7.60;54.80
13086;DHT22;6609;49.882;8.664;2023-04-25T20:50:05;9.40;56.30
13086;DHT22;6609;49.882;8.664;2023-04-25T20:52:32;9.50;57.10
13086;DHT22;6609;49.882;8.664;2023-04-25T20:55:00;11.00;57.50
13086;DHT22;6609;49.882;8.664;2023-04-25T20:57:27;9.30;56.60
13086;DHT22;6609;49.882;8.664;2023-04-25T20:59:55;9.40;56.80
13086;DHT22;6609;49.882;8.664;2023-04-25T21:02:22;9.40;57.40
13086;DHT22;6609;49.882;8.664;2023-04-25T21:04:49;9.30;57.10
13086;DHT22;6609;49.882;8.664;2023-04-25T21:07:16;9.30;57.50
13086;DHT22;6609;49.882;8.664;2023-04-25T21:09:43;9.30;57.50
13086;DHT22;6609;49.882;8.664;2023-04-25T21:12:10;9.20;57.70
13086;DHT22;6609;49.882;8.664;2023-04-25T21:14:36;9.20;58.40
13086;DHT22;6609;49.882;8.664;2023-04-25T21:17:04;9.20;58.20
13086;DHT22;6609;49.882;8.664;2023-04-25T21:19:31;9.20;58.80
13086;DHT22;6609;49.882;8.664;2023-04-25T21:24:26;9.20;58.90
13086;DHT22;6609;49.882;8.664;2023-04-25T21:26:53;9.20;59.50
13086;DHT22;6609;49.882;8.664;2023-04-25T21:29:20;9.10;58.80
13086;DHT22;6609;49.882;8.664;2023-04-25T21:31:46;9.10;59.50
13086;DHT22;6609;49.882;8.664;2023-04-25T21:34:14;9.10;59.60
13086;DHT22;6609;49.882;8.664;2023-04-25T21:36:41;9.10;59.30
13086;DHT22;6609;49.882;8.664;2023-04-25T21:39:08;9.10;59.40
13086;DHT22;6609;49.882;8.664;2023-04-25T21:41:36;9.10;60.00
13086;DHT22;6609;49.882;8.664;2023-04-25T21:44:03;9.00;59.80
13086;DHT22;6609;49.882;8.664;2023-04-25T21:46:30;8.90;60.00
13086;DHT22;6609;49.882;8.664;2023-04-25T21:48:57;8.80;60.50
13086;DHT22;6609;49.882;8.664;2023-04-25T21:51:25;8.80;61.10
13086;DHT22;6609;49.882;8.664;2023-04-25T21:53:53;8.70;60.90